createdAt,value
2019-02-08T00:01:47.691Z,7.90
2019-02-08T00:04:18.175Z,7.20
2019-02-08T00:06:47.813Z,8.07
2019-02-08T00:09:17.830Z,7.57
2019-02-08T00:11:48.905Z,7.33
2019-02-08T00:14:19.066Z,7.03
2019-02-08T00:16:49.217Z,7.40
2019-02-08T00:19:19.316Z,6.77
2019-02-08T00:21:49.513Z,7.23
2019-02-08T00:24:20.347Z,7.37
2019-02-08T00:26:51.276Z,7.43
2019-02-08T00:29:21.499Z,8.43
2019-02-08T00:31:51.082Z,8.17
2019-02-08T00:34:21.807Z,8.53
2019-02-08T00:36:52.041Z,7.83
2019-02-08T00:39:22.596Z,11.00
2019-02-08T00:41:52.510Z,13.07
2019-02-08T00:44:22.556Z,13.23
2019-02-08T00:46:52.710Z,13.73
2019-02-08T00:49:22.227Z,8.17
2019-02-08T00:51:52.395Z,13.37
2019-02-08T00:54:22.579Z,13.47
2019-02-08T00:56:52.978Z,14.73
2019-02-08T00:59:23.496Z,12.60
2019-02-08T01:01:53.836Z,9.80
2019-02-08T01:04:24.054Z,9.20
2019-02-08T01:06:54.291Z,10.83
2019-02-08T01:09:24.611Z,10.77
2019-02-08T01:11:55.259Z,12.67
2019-02-08T01:14:25.414Z,13.67
2019-02-08T01:16:56.006Z,13.03
2019-02-08T01:19:26.228Z,13.77
2019-02-08T01:21:56.253Z,13.27
2019-02-08T01:24:26.441Z,11.67
2019-02-08T01:26:57.004Z,11.27
2019-02-08T01:29:26.594Z,11.00
2019-02-08T01:31:57.078Z,8.70
2019-02-08T01:34:27.785Z,10.33
2019-02-08T01:36:58.542Z,10.07
2019-02-08T01:39:29.024Z,9.47
2019-02-08T01:41:59.197Z,9.80
2019-02-08T01:44:30.470Z,9.30
2019-02-08T01:47:01.324Z,8.60
2019-02-08T01:49:31.523Z,8.67
2019-02-08T01:52:01.698Z,9.23
2019-02-08T01:54:31.880Z,9.13
2019-02-08T01:57:02.092Z,8.90
2019-02-08T01:59:32.549Z,8.33
2019-02-08T02:02:04.922Z,8.43
2019-02-08T02:04:35.130Z,6.90
2019-02-08T02:07:05.531Z,7.87
2019-02-08T02:09:35.638Z,7.30
2019-02-08T02:12:05.764Z,6.60
2019-02-08T02:14:35.956Z,5.90
2019-02-08T02:17:57.893Z,5.97
2019-02-08T02:20:28.592Z,6.30
2019-02-08T02:22:58.742Z,8.10
2019-02-08T02:25:28.934Z,6.07
2019-02-08T02:27:59.525Z,5.83
2019-02-08T02:30:32.892Z,5.83
2019-02-08T02:33:03.153Z,5.10
2019-02-08T02:35:33.413Z,5.60
2019-02-08T02:38:04.182Z,5.83
2019-02-08T02:40:34.755Z,5.20
2019-02-08T02:43:05.825Z,4.70
2019-02-08T02:45:37.501Z,4.63
2019-02-08T02:48:09.699Z,4.53
2019-02-08T02:50:40.796Z,4.87
2019-02-08T02:53:11.056Z,4.47
2019-02-08T02:55:41.595Z,4.63
2019-02-08T02:58:11.886Z,4.73
2019-02-08T03:00:44.069Z,4.60
2019-02-08T03:03:15.514Z,4.60
2019-02-08T03:05:46.360Z,4.20
2019-02-08T03:08:17.154Z,4.80
2019-02-08T03:10:47.346Z,4.93
2019-02-08T03:13:17.800Z,5.00
2019-02-08T03:15:48.511Z,4.70
2019-02-08T03:18:18.933Z,4.17
2019-02-08T03:20:49.378Z,4.67
2019-02-08T03:23:19.677Z,5.00
2019-02-08T03:25:49.989Z,5.30
2019-02-08T03:28:20.149Z,5.73
2019-02-08T03:30:55.936Z,5.40
2019-02-08T03:33:26.184Z,5.20
2019-02-08T03:35:56.399Z,5.20
2019-02-08T03:38:26.597Z,5.23
2019-02-08T03:40:56.980Z,4.57
2019-02-08T03:43:27.367Z,5.17
2019-02-08T03:45:57.938Z,5.40
2019-02-08T03:48:28.274Z,5.03
2019-02-08T03:50:58.165Z,3.70
2019-02-08T03:53:28.437Z,4.20
2019-02-08T03:55:58.989Z,4.57
2019-02-08T03:58:29.148Z,3.70
2019-02-08T04:01:04.320Z,4.27
2019-02-08T04:03:34.386Z,3.73
2019-02-08T04:06:05.048Z,4.17
2019-02-08T04:08:35.091Z,4.27
2019-02-08T04:11:04.668Z,4.23
2019-02-08T04:13:35.013Z,3.40
2019-02-08T04:16:05.850Z,3.37
2019-02-08T04:18:36.073Z,3.47
2019-02-08T04:21:05.535Z,3.80
2019-02-08T04:23:35.913Z,3.80
2019-02-08T04:26:06.135Z,3.90
2019-02-08T04:28:36.309Z,4.37
2019-02-08T04:31:05.846Z,3.80
2019-02-08T04:33:36.380Z,3.37
2019-02-08T04:36:06.672Z,3.60
2019-02-08T04:38:36.884Z,3.20
2019-02-08T04:41:06.803Z,3.90
2019-02-08T04:43:37.188Z,5.57
2019-02-08T04:46:07.325Z,3.50
2019-02-08T04:48:38.502Z,3.60
2019-02-08T04:51:08.717Z,3.23
2019-02-08T04:53:39.019Z,3.57
2019-02-08T04:56:09.244Z,3.40
2019-02-08T04:58:38.781Z,3.13
2019-02-08T05:01:10.298Z,4.37
2019-02-08T05:03:40.575Z,3.80
2019-02-08T05:06:10.857Z,3.63
2019-02-08T05:08:41.183Z,4.00
2019-02-08T05:11:10.975Z,3.67
2019-02-08T05:13:41.088Z,4.53
2019-02-08T05:16:11.337Z,4.70
2019-02-08T05:18:41.354Z,4.60
2019-02-08T05:21:11.895Z,5.30
2019-02-08T05:23:42.032Z,8.17
2019-02-08T05:26:12.647Z,11.00
2019-02-08T05:28:43.543Z,10.50
2019-02-08T05:31:13.713Z,11.93
2019-02-08T05:33:43.995Z,11.63
2019-02-08T05:36:14.713Z,11.50
2019-02-08T05:38:45.053Z,10.87
2019-02-08T05:41:15.821Z,12.13
2019-02-08T05:43:45.377Z,11.90
2019-02-08T05:46:15.292Z,11.87
2019-02-08T05:48:45.406Z,10.77
2019-02-08T05:51:15.646Z,11.57
2019-02-08T05:53:46.409Z,9.90
2019-02-08T05:56:16.640Z,10.03
2019-02-08T05:58:47.319Z,10.10
2019-02-08T06:01:17.598Z,10.50
2019-02-08T06:03:47.774Z,10.97
2019-02-08T06:06:18.136Z,10.17
2019-02-08T06:08:50.086Z,11.70
2019-02-08T06:11:21.821Z,11.13
2019-02-08T06:13:52.143Z,11.20
2019-02-08T06:16:22.343Z,11.23
2019-02-08T06:18:52.548Z,10.70
2019-02-08T06:21:22.869Z,11.23
2019-02-08T06:23:53.123Z,11.60
2019-02-08T06:26:23.862Z,11.07
2019-02-08T06:28:54.116Z,11.10
2019-02-08T06:31:26.592Z,13.47
2019-02-08T06:33:56.472Z,31.20
2019-02-08T06:36:26.854Z,12.87
2019-02-08T06:38:56.498Z,10.67
2019-02-08T06:41:26.816Z,10.90
2019-02-08T06:43:56.301Z,10.50
2019-02-08T06:46:26.394Z,10.60
2019-02-08T06:48:56.507Z,8.70
2019-02-08T06:51:26.131Z,9.87
2019-02-08T06:53:56.047Z,8.83
2019-02-08T06:56:43.986Z,8.97
2019-02-08T06:59:39.489Z,7.47
2019-02-08T07:02:21.114Z,7.33
2019-02-08T07:05:00.798Z,6.70
2019-02-08T07:07:41.953Z,6.30
2019-02-08T07:10:34.438Z,6.30
2019-02-08T07:13:28.211Z,6.37
2019-02-08T07:16:07.760Z,6.20
2019-02-08T07:18:56.833Z,6.97
2019-02-08T07:21:37.206Z,6.70
2019-02-08T07:24:26.293Z,6.37
2019-02-08T07:27:14.396Z,6.97
2019-02-08T07:30:08.386Z,7.00
2019-02-08T07:33:04.702Z,6.47
2019-02-08T07:35:50.305Z,6.23
2019-02-08T07:38:29.627Z,6.13
2019-02-08T07:41:21.223Z,6.43
2019-02-08T07:44:00.355Z,6.43
2019-02-08T07:46:49.567Z,6.00
2019-02-08T07:49:37.574Z,6.20
2019-02-08T07:52:41.528Z,5.67
2019-02-08T07:55:37.126Z,6.00
2019-02-08T07:58:25.663Z,5.30
2019-02-08T08:01:15.012Z,6.97
2019-02-08T08:04:02.749Z,5.40
2019-02-08T08:07:00.527Z,4.77
2019-02-08T08:09:55.790Z,4.73
2019-02-08T08:12:56.540Z,5.17
2019-02-08T08:15:37.142Z,5.20
2019-02-08T08:18:28.449Z,5.10
2019-02-08T08:21:16.686Z,5.33
2019-02-08T08:24:16.193Z,5.00
2019-02-08T08:27:06.380Z,5.43
2019-02-08T08:29:57.629Z,5.50
2019-02-08T08:32:48.114Z,6.07
2019-02-08T08:35:26.295Z,6.10
2019-02-08T08:38:38.389Z,5.70
2019-02-08T08:41:19.261Z,5.87
2019-02-08T08:44:03.484Z,6.43
2019-02-08T08:47:09.961Z,6.57
2019-02-08T08:49:55.517Z,6.47
2019-02-08T08:52:32.736Z,5.80
2019-02-08T08:55:20.835Z,5.43
2019-02-08T08:58:18.451Z,5.63
2019-02-08T09:01:03.752Z,5.67
2019-02-08T09:03:43.769Z,7.40
2019-02-08T09:06:29.745Z,5.20
2019-02-08T09:09:18.504Z,5.70
2019-02-08T09:12:02.735Z,5.03
2019-02-08T09:14:41.081Z,5.10
2019-02-08T09:17:29.859Z,4.87
2019-02-08T09:20:21.531Z,5.40
2019-02-08T09:23:16.041Z,4.93
2019-02-08T09:25:59.732Z,5.03
2019-02-08T09:28:47.071Z,5.13
2019-02-08T09:31:32.735Z,5.03
2019-02-08T09:34:42.576Z,9.13
2019-02-08T09:37:36.366Z,5.40
2019-02-08T09:40:15.272Z,5.17
2019-02-08T09:43:02.867Z,4.87
2019-02-08T09:45:46.101Z,4.83
2019-02-08T09:48:41.963Z,5.20
2019-02-08T09:51:52.424Z,4.70
2019-02-08T09:55:02.736Z,5.30
2019-02-08T09:58:21.478Z,5.43
2019-02-08T10:01:51.848Z,5.13
2019-02-08T10:05:15.176Z,4.97
2019-02-08T10:08:13.927Z,4.23
2019-02-08T10:12:06.516Z,3.80
2019-02-08T10:15:13.912Z,4.20
2019-02-08T10:18:20.411Z,4.03
2019-02-08T10:21:27.910Z,4.17
2019-02-08T10:24:35.084Z,3.70
2019-02-08T10:27:30.511Z,3.47
2019-02-08T10:30:54.588Z,3.30
2019-02-08T10:33:41.908Z,3.00
2019-02-08T10:36:42.989Z,2.97
2019-02-08T10:39:57.779Z,2.90
2019-02-08T10:43:22.556Z,3.13
2019-02-08T10:46:38.810Z,3.17
2019-02-08T10:49:53.265Z,3.40
2019-02-08T10:53:04.225Z,3.40
2019-02-08T10:56:15.121Z,2.90
2019-02-08T10:59:00.502Z,3.17
2019-02-08T11:01:42.294Z,2.93
2019-02-08T11:04:49.366Z,2.90
2019-02-08T11:07:37.633Z,3.10
2019-02-08T11:10:33.176Z,3.70
2019-02-08T11:13:45.183Z,2.90
2019-02-08T11:17:09.489Z,2.80
2019-02-08T11:19:38.047Z,2.67
2019-02-08T11:22:09.012Z,2.63
2019-02-08T11:24:39.567Z,2.73
2019-02-08T11:27:09.875Z,3.30
2019-02-08T11:29:42.381Z,5.17
2019-02-08T11:32:15.334Z,2.90
2019-02-08T11:34:45.873Z,3.00
2019-02-08T11:37:16.805Z,2.57
2019-02-08T11:39:47.345Z,3.00
2019-02-08T11:42:16.934Z,2.73
2019-02-08T11:44:47.268Z,2.30
2019-02-08T11:47:18.029Z,2.40
2019-02-08T11:49:47.697Z,2.40
2019-02-08T11:52:17.759Z,2.23
2019-02-08T11:54:48.062Z,2.20
2019-02-08T11:57:18.387Z,2.17
2019-02-08T11:59:48.908Z,1.83
2019-02-08T12:02:19.136Z,1.50
2019-02-08T12:04:51.939Z,1.50
2019-02-08T12:07:22.248Z,1.60
2019-02-08T12:09:51.921Z,2.80
2019-02-08T12:12:21.533Z,3.83
2019-02-08T12:14:52.183Z,1.70
2019-02-08T12:17:22.614Z,1.70
2019-02-08T12:19:53.165Z,1.70
2019-02-08T12:22:22.883Z,2.50
2019-02-08T12:24:53.382Z,1.90
2019-02-08T12:27:23.684Z,1.87
2019-02-08T12:29:53.745Z,2.40
2019-02-08T12:32:24.688Z,1.90
2019-02-08T12:35:00.437Z,2.30
2019-02-08T12:37:31.063Z,2.30
2019-02-08T12:40:02.509Z,2.77
2019-02-08T12:42:33.871Z,2.30
2019-02-08T12:45:05.173Z,2.43
2019-02-08T12:47:35.814Z,2.00
2019-02-08T12:50:07.162Z,2.27
2019-02-08T12:52:37.799Z,1.87
2019-02-08T12:55:08.049Z,2.17
2019-02-08T12:57:38.572Z,1.90
2019-02-08T13:00:10.020Z,2.60
2019-02-08T13:02:40.639Z,2.37
2019-02-08T13:05:13.019Z,1.70
2019-02-08T13:07:44.174Z,2.00
2019-02-08T13:10:17.061Z,2.30
2019-02-08T13:12:47.628Z,1.77
2019-02-08T13:15:17.635Z,1.60
2019-02-08T13:17:47.962Z,1.70
2019-02-08T13:20:17.734Z,1.77
2019-02-08T13:22:47.250Z,1.97
2019-02-08T13:25:18.390Z,2.87
2019-02-08T13:27:49.035Z,1.93
2019-02-08T13:30:24.346Z,1.83
2019-02-08T13:32:53.964Z,2.53
2019-02-08T13:35:24.274Z,2.83
2019-02-08T13:37:54.880Z,2.07
2019-02-08T13:40:24.624Z,3.67
2019-02-08T13:42:55.486Z,2.20
2019-02-08T13:45:26.518Z,2.37
2019-02-08T13:47:56.747Z,2.50
2019-02-08T13:50:30.587Z,1.50
2019-02-08T13:53:00.811Z,2.50
2019-02-08T13:55:31.079Z,1.50
2019-02-08T13:58:03.488Z,1.40
2019-02-08T14:00:35.629Z,2.07
2019-02-08T14:03:06.597Z,1.60
2019-02-08T14:05:37.061Z,1.40
2019-02-08T14:08:08.173Z,1.30
2019-02-08T14:10:38.628Z,2.07
2019-02-08T14:13:10.545Z,1.30
2019-02-08T14:15:41.279Z,1.53
2019-02-08T14:18:11.516Z,1.97
2019-02-08T14:20:41.787Z,1.37
2019-02-08T14:23:12.090Z,4.60
2019-02-08T14:25:43.410Z,1.57
2019-02-08T14:28:13.743Z,2.10
2019-02-08T14:30:44.984Z,1.50
2019-02-08T14:33:15.844Z,1.47
2019-02-08T14:35:47.935Z,1.80
2019-02-08T14:38:21.697Z,2.00
2019-02-08T14:41:01.773Z,1.87
2019-02-08T14:43:43.447Z,1.70
2019-02-08T14:46:15.379Z,2.10
2019-02-08T14:48:46.811Z,1.77
2019-02-08T14:51:18.894Z,1.60
2019-02-08T14:53:51.647Z,3.20
2019-02-08T14:56:21.926Z,2.20
2019-02-08T14:58:52.899Z,3.00
2019-02-08T15:01:23.187Z,2.10
2019-02-08T15:03:53.586Z,2.47
2019-02-08T15:06:25.067Z,1.93
2019-02-08T15:08:55.522Z,2.17
2019-02-08T15:11:25.939Z,1.70
2019-02-08T15:13:58.706Z,1.90
2019-02-08T15:16:29.578Z,1.90
2019-02-08T15:19:00.151Z,1.80
2019-02-08T15:21:32.785Z,2.13
2019-02-08T15:24:03.461Z,1.50
2019-02-08T15:26:33.949Z,1.80
2019-02-08T15:29:04.459Z,1.90
2019-02-08T15:31:35.676Z,1.70
2019-02-08T15:34:05.855Z,2.50
2019-02-08T15:36:36.425Z,2.30
2019-02-08T15:39:11.653Z,2.57
2019-02-08T15:41:42.906Z,2.23
2019-02-08T15:44:12.616Z,3.40
2019-02-08T15:46:43.052Z,1.87
2019-02-08T15:49:13.577Z,2.20
2019-02-08T15:51:43.304Z,2.93
2019-02-08T15:54:14.519Z,2.70
2019-02-08T15:56:44.940Z,2.57
2019-02-08T15:59:15.605Z,2.47
2019-02-08T16:01:54.784Z,3.03
2019-02-08T16:04:27.053Z,3.13
2019-02-08T16:06:56.680Z,2.57
2019-02-08T16:09:26.869Z,2.80
2019-02-08T16:11:56.501Z,2.33
2019-02-08T16:14:26.735Z,2.87
2019-02-08T16:16:57.444Z,3.23
2019-02-08T16:19:32.025Z,3.10
2019-02-08T16:22:02.180Z,3.10
2019-02-08T16:24:31.699Z,2.93
2019-02-08T16:27:02.520Z,2.37
2019-02-08T16:29:34.358Z,2.57
2019-02-08T16:32:04.705Z,2.30
2019-02-08T16:34:34.397Z,3.73
2019-02-08T16:37:05.346Z,2.97
2019-02-08T16:39:35.730Z,2.47
2019-02-08T16:42:07.280Z,2.20
2019-02-08T16:44:37.488Z,3.57
2019-02-08T16:47:08.230Z,2.70
2019-02-08T16:49:58.028Z,3.10
2019-02-08T16:52:28.232Z,3.00
2019-02-08T16:55:00.499Z,3.13
2019-02-08T16:57:31.215Z,3.37
2019-02-08T17:00:01.657Z,4.07
2019-02-08T17:02:31.920Z,3.73
2019-02-08T17:05:02.144Z,3.70
2019-02-08T17:07:31.876Z,3.73
2019-02-08T17:10:02.736Z,3.23
2019-02-08T17:12:33.145Z,3.60
2019-02-08T17:15:03.895Z,3.57
2019-02-08T17:17:33.989Z,6.50
2019-02-08T17:20:05.137Z,4.70
2019-02-08T17:22:35.290Z,3.40
2019-02-08T17:25:05.139Z,3.67
2019-02-08T17:27:43.801Z,3.10
2019-02-08T17:30:14.856Z,4.07
2019-02-08T17:32:46.745Z,3.80
2019-02-08T17:35:18.531Z,4.17
2019-02-08T17:37:50.962Z,3.77
2019-02-08T17:40:22.224Z,4.43
2019-02-08T17:42:52.393Z,5.80
2019-02-08T17:45:22.554Z,5.03
2019-02-08T17:47:52.262Z,4.53
2019-02-08T17:50:22.765Z,4.00
2019-02-08T17:52:52.985Z,3.50
2019-02-08T17:55:24.513Z,3.27
2019-02-08T17:57:54.863Z,3.00
2019-02-08T18:00:38.795Z,2.73
2019-02-08T18:03:09.241Z,3.57
2019-02-08T18:05:40.590Z,3.50
2019-02-08T18:08:10.968Z,4.17
2019-02-08T18:10:41.569Z,3.93
2019-02-08T18:13:12.418Z,3.87
2019-02-08T18:15:42.656Z,3.97
2019-02-08T18:18:15.187Z,4.47
2019-02-08T18:20:46.107Z,4.57
2019-02-08T18:23:17.092Z,4.17
2019-02-08T18:25:47.432Z,4.63
2019-02-08T18:28:17.018Z,5.00
2019-02-08T18:30:47.939Z,4.10
2019-02-08T18:33:20.845Z,3.90
2019-02-08T18:35:51.137Z,4.23
2019-02-08T18:38:21.139Z,4.03
2019-02-08T18:40:51.323Z,3.70
2019-02-08T18:43:21.659Z,3.67
2019-02-08T18:45:51.416Z,5.33
2019-02-08T18:48:22.944Z,4.63
2019-02-08T18:50:54.189Z,5.13
2019-02-08T18:53:24.528Z,4.03
2019-02-08T18:55:54.838Z,4.37
2019-02-08T18:58:25.127Z,5.57
2019-02-08T19:00:55.449Z,4.90
2019-02-08T19:03:25.825Z,4.60
2019-02-08T19:05:55.446Z,5.03
2019-02-08T19:08:28.641Z,5.23
2019-02-08T19:10:58.912Z,5.10
2019-02-08T19:13:29.256Z,5.17
2019-02-08T19:15:59.552Z,4.67
2019-02-08T19:18:30.356Z,4.50
2019-02-08T19:21:00.537Z,4.40
2019-02-08T19:23:30.561Z,4.30
2019-02-08T19:26:00.252Z,4.47
2019-02-08T19:28:30.877Z,4.87
2019-02-08T19:31:00.628Z,4.40
2019-02-08T19:33:31.458Z,4.33
2019-02-08T19:36:02.216Z,4.40
2019-02-08T19:38:32.454Z,4.10
2019-02-08T19:43:35.170Z,4.53
2019-02-08T19:46:05.958Z,4.37
2019-02-08T19:48:35.724Z,4.97
2019-02-08T19:51:05.950Z,4.70
2019-02-08T19:53:36.235Z,3.93
2019-02-08T19:56:05.949Z,4.70
2019-02-08T19:58:36.644Z,4.90
2019-02-08T20:01:06.314Z,4.93
2019-02-08T20:03:35.873Z,4.83
2019-02-08T20:06:08.697Z,4.60
2019-02-08T20:08:38.944Z,5.30
2019-02-08T20:11:09.277Z,5.00
2019-02-08T20:13:39.574Z,5.43
2019-02-08T20:16:11.339Z,4.93
2019-02-08T20:18:42.051Z,4.63
2019-02-08T20:21:12.899Z,3.60
2019-02-08T20:23:43.235Z,4.03
2019-02-08T20:26:14.235Z,4.23
2019-02-08T20:28:44.526Z,4.13
2019-02-08T20:31:14.812Z,3.70
2019-02-08T20:33:45.627Z,4.50
2019-02-08T20:36:16.308Z,4.70
2019-02-08T20:38:46.918Z,5.70
2019-02-08T20:41:17.683Z,4.90
2019-02-08T20:43:47.903Z,4.60
2019-02-08T20:46:18.298Z,4.20
2019-02-08T20:48:48.568Z,4.17
2019-02-08T20:51:18.834Z,3.67
2019-02-08T20:53:49.057Z,4.23
2019-02-08T20:56:19.336Z,4.10
2019-02-08T20:58:51.144Z,3.97
2019-02-08T21:01:21.417Z,4.17
2019-02-08T21:03:52.099Z,3.90
2019-02-08T21:06:21.745Z,4.83
2019-02-08T21:08:51.804Z,4.70
2019-02-08T21:11:22.336Z,4.57
2019-02-08T21:13:53.019Z,4.67
2019-02-08T21:16:23.338Z,4.03
2019-02-08T21:18:54.128Z,4.67
2019-02-08T21:21:25.315Z,4.47
2019-02-08T21:23:56.263Z,5.13
2019-02-08T21:26:26.357Z,4.87
2019-02-08T21:28:58.117Z,4.53
2019-02-08T21:31:28.655Z,4.77
2019-02-08T21:34:01.256Z,5.30
2019-02-08T21:36:38.878Z,5.50
2019-02-08T21:39:05.555Z,5.30
2019-02-08T21:41:35.855Z,5.03
2019-02-08T21:44:05.988Z,5.30
2019-02-08T21:46:36.981Z,5.23
2019-02-08T21:49:07.347Z,5.10
2019-02-08T21:51:37.496Z,5.80
2019-02-08T21:54:07.693Z,6.70
2019-02-08T21:56:37.363Z,6.07
2019-02-08T21:59:07.640Z,5.77
2019-02-08T22:01:37.354Z,6.50
2019-02-08T22:04:07.466Z,6.00
2019-02-08T22:06:38.351Z,7.10
2019-02-08T22:09:08.437Z,5.83
2019-02-08T22:11:40.180Z,5.43
2019-02-08T22:14:10.394Z,5.63
2019-02-08T22:16:40.596Z,5.03
2019-02-08T22:19:13.199Z,5.87
2019-02-08T22:21:43.331Z,4.80
2019-02-08T22:24:12.987Z,5.67
2019-02-08T22:26:44.083Z,7.53
2019-02-08T22:29:14.431Z,5.87
2019-02-08T22:31:44.970Z,5.97
2019-02-08T22:34:16.501Z,6.23
2019-02-08T22:36:47.046Z,6.87
2019-02-08T22:39:17.249Z,7.77
2019-02-08T22:41:46.999Z,7.40
2019-02-08T22:44:17.185Z,7.83
2019-02-08T22:46:47.700Z,8.80
2019-02-08T22:49:18.115Z,8.13
2019-02-08T22:51:48.806Z,8.60
2019-02-08T22:54:20.317Z,8.57
2019-02-08T22:56:50.830Z,9.13
2019-02-08T22:59:22.097Z,8.60
2019-02-08T23:01:56.882Z,7.77
2019-02-08T23:04:26.590Z,8.93
2019-02-08T23:06:57.237Z,7.80
2019-02-08T23:09:27.440Z,7.60
2019-02-08T23:11:57.704Z,8.17
2019-02-08T23:14:27.948Z,8.30
2019-02-08T23:16:58.506Z,8.23
2019-02-08T23:19:30.835Z,8.10
2019-02-08T23:22:02.100Z,8.43
2019-02-08T23:24:32.571Z,8.77
2019-02-08T23:27:03.211Z,8.33
2019-02-08T23:29:33.490Z,9.70
2019-02-08T23:32:04.253Z,8.77
2019-02-08T23:34:34.428Z,9.20
2019-02-08T23:37:04.859Z,8.83
2019-02-08T23:39:35.073Z,9.10
2019-02-08T23:42:05.221Z,9.23
2019-02-08T23:44:35.369Z,10.33
2019-02-08T23:47:07.845Z,9.47
2019-02-08T23:49:38.146Z,8.77
2019-02-08T23:52:08.236Z,8.67
2019-02-08T23:54:39.919Z,8.20
2019-02-08T23:57:09.515Z,7.00
2019-02-08T23:59:39.848Z,8.03
